Terminal Aerodrome Forecast
Issued by NWS Blacksburg, VA

Home | Current Version | Previous Version | Text Only | Print | Product List | Glossary On
Versions: 1 2 3 4 5 6 7 8 9 10 11 12 13 14 15 16 17 18 19 20 21 22 23 24 25 26 27 28 29 30 31 32 33 34 35 36
000
FTUS41 KRNK 220538
TAFLYH
TAF
KLYH 220538Z 2206/2306 00000KT P6SM OVC006
     FM220900 00000KT 3SM -DZ BR OVC003
     FM221400 13003KT P6SM OVC015
     FM221800 15004KT P6SM VCSH BKN040
     FM230000 16003KT P6SM BKN045=

USA.gov is the U.S. government's official web portal to all federal, state and local government web resources and services.